createdAt,value
2018-07-02T00:01:06.572Z,76.81
2018-07-02T00:03:37.724Z,78.46
2018-07-02T00:06:33.962Z,80.34
2018-07-02T00:09:05.724Z,82.45
2018-07-02T00:11:37.390Z,83.50
2018-07-02T00:14:08.506Z,83.52
2018-07-02T00:16:39.738Z,83.23
2018-07-02T00:19:11.002Z,82.58
2018-07-02T00:21:42.047Z,81.07
2018-07-02T00:24:13.368Z,79.86
2018-07-02T00:26:44.475Z,79.36
2018-07-02T00:29:15.814Z,77.87
2018-07-02T00:31:47.091Z,74.27
2018-07-02T00:34:18.404Z,71.72
2018-07-02T00:36:49.633Z,68.37
2018-07-02T00:39:20.943Z,67.77
2018-07-02T00:41:51.979Z,67.37
2018-07-02T00:44:23.384Z,68.43
2018-07-02T00:46:55.733Z,68.89
2018-07-02T00:49:26.880Z,68.00
2018-07-02T00:51:57.967Z,67.99
2018-07-02T00:57:29.687Z,66.74
2018-07-02T01:00:12.163Z,67.55
2018-07-02T01:02:43.337Z,65.29
2018-07-02T01:05:14.607Z,65.17
2018-07-02T01:07:46.246Z,64.42
2018-07-02T01:10:17.566Z,64.55
2018-07-02T01:12:48.645Z,64.16
2018-07-02T01:15:19.962Z,64.41
2018-07-02T01:17:51.108Z,65.62
2018-07-02T01:20:22.070Z,64.91
2018-07-02T01:22:53.474Z,65.25
2018-07-02T01:25:24.552Z,64.66
2018-07-02T01:27:55.857Z,63.44
2018-07-02T01:30:26.821Z,62.47
2018-07-02T01:32:58.020Z,62.08
2018-07-02T01:35:30.316Z,62.35
2018-07-02T01:38:02.480Z,61.91
2018-07-02T01:40:34.396Z,61.97
2018-07-02T01:43:05.694Z,61.39
2018-07-02T01:45:37.079Z,61.31
2018-07-02T01:48:08.549Z,61.35
2018-07-02T01:50:39.960Z,60.45
2018-07-02T01:53:11.121Z,59.60
2018-07-02T01:55:42.343Z,59.78
2018-07-02T01:58:13.740Z,58.17
2018-07-02T02:00:45.019Z,58.65
2018-07-02T02:03:16.144Z,59.12
2018-07-02T02:05:47.224Z,59.89
2018-07-02T02:08:18.454Z,58.78
2018-07-02T02:10:49.748Z,59.30
2018-07-02T02:13:20.904Z,58.67
2018-07-02T02:15:51.918Z,60.21
2018-07-02T02:18:22.970Z,58.92
2018-07-02T02:20:55.942Z,59.05
2018-07-02T02:23:27.220Z,59.30
2018-07-02T02:25:58.453Z,58.23
2018-07-02T02:28:29.730Z,58.80
2018-07-02T02:31:01.108Z,57.88
2018-07-02T02:33:32.592Z,57.82
2018-07-02T02:36:03.732Z,59.35
2018-07-02T02:38:34.791Z,59.22
2018-07-02T02:41:05.926Z,58.87
2018-07-02T02:43:37.078Z,59.38
2018-07-02T02:46:08.511Z,59.76
2018-07-02T02:48:39.493Z,57.42
2018-07-02T02:51:10.917Z,55.92
2018-07-02T02:53:42.034Z,55.63
2018-07-02T02:56:13.411Z,54.50
2018-07-02T02:58:44.722Z,55.35
2018-07-02T03:01:16.020Z,54.25
2018-07-02T03:03:46.922Z,53.65
2018-07-02T03:06:18.061Z,52.99
2018-07-02T03:08:49.161Z,51.79
2018-07-02T03:11:20.061Z,49.52
2018-07-02T03:13:51.412Z,49.31
2018-07-02T03:16:22.788Z,49.48
2018-07-02T03:18:53.944Z,49.20
2018-07-02T03:21:25.260Z,49.42
2018-07-02T03:23:56.447Z,48.27
2018-07-02T03:26:27.360Z,48.73
2018-07-02T03:28:58.536Z,47.29
2018-07-02T03:31:29.780Z,47.77
2018-07-02T03:34:00.969Z,48.06
2018-07-02T03:36:32.176Z,48.93
2018-07-02T03:39:03.278Z,49.60
2018-07-02T03:41:34.313Z,49.69
2018-07-02T03:44:05.404Z,49.63
2018-07-02T03:46:36.638Z,50.08
2018-07-02T03:49:07.864Z,49.59
2018-07-02T03:51:38.831Z,50.90
2018-07-02T03:54:09.760Z,50.31
2018-07-02T03:56:40.876Z,51.04
2018-07-02T03:59:12.522Z,51.63
2018-07-02T04:01:44.624Z,50.97
2018-07-02T04:04:15.799Z,50.81
2018-07-02T04:06:47.322Z,51.49
2018-07-02T04:09:18.622Z,50.67
2018-07-02T04:11:49.820Z,51.00
2018-07-02T04:14:21.819Z,51.47
2018-07-02T04:16:53.132Z,51.69
2018-07-02T04:19:24.456Z,52.60
2018-07-02T04:21:55.801Z,51.93
2018-07-02T04:24:26.851Z,52.28
2018-07-02T04:26:58.117Z,51.55
2018-07-02T04:29:29.466Z,52.86
2018-07-02T04:32:00.762Z,52.28
2018-07-02T04:34:31.912Z,51.66
2018-07-02T04:37:02.803Z,51.79
2018-07-02T04:39:33.744Z,52.09
2018-07-02T04:42:04.772Z,52.47
2018-07-02T04:44:35.787Z,52.76
2018-07-02T04:47:06.818Z,52.25
2018-07-02T04:49:37.795Z,52.12
2018-07-02T04:52:08.882Z,52.00
2018-07-02T04:54:39.856Z,51.47
2018-07-02T04:57:11.007Z,50.53
2018-07-02T04:59:42.002Z,49.40
2018-07-02T05:02:13.018Z,47.60
2018-07-02T05:04:45.055Z,46.86
2018-07-02T05:07:16.166Z,45.76
2018-07-02T05:09:47.151Z,46.77
2018-07-02T05:12:17.950Z,44.45
2018-07-02T05:14:48.881Z,43.20
2018-07-02T05:17:20.221Z,44.25
2018-07-02T05:19:51.446Z,45.24
2018-07-02T05:22:22.673Z,46.78
2018-07-02T05:24:53.706Z,45.85
2018-07-02T05:27:24.685Z,42.99
2018-07-02T05:29:56.032Z,40.57
2018-07-02T05:32:27.298Z,39.12
2018-07-02T05:34:58.563Z,36.02
2018-07-02T05:37:29.672Z,36.56
2018-07-02T05:40:01.281Z,38.09
2018-07-02T05:42:32.465Z,40.11
2018-07-02T05:45:03.979Z,41.90
2018-07-02T05:47:35.177Z,42.02
2018-07-02T05:50:06.518Z,36.75
2018-07-02T05:52:37.559Z,33.80
2018-07-02T05:55:08.659Z,29.44
2018-07-02T05:57:39.857Z,26.33
2018-07-02T06:00:11.223Z,25.31
2018-07-02T06:02:42.576Z,22.89
2018-07-02T06:05:13.818Z,21.81
2018-07-02T06:07:45.059Z,21.96
2018-07-02T06:10:16.317Z,22.18
2018-07-02T06:12:47.262Z,21.88
2018-07-02T06:15:18.503Z,19.99
2018-07-02T06:17:50.537Z,21.75
2018-07-02T06:20:21.782Z,23.62
2018-07-02T06:22:54.683Z,22.00
2018-07-02T06:25:25.942Z,20.89
2018-07-02T06:27:57.195Z,21.46
2018-07-02T06:30:28.437Z,20.72
2018-07-02T06:32:59.611Z,20.09
2018-07-02T06:35:30.735Z,19.90
2018-07-02T06:38:01.741Z,19.94
2018-07-02T06:40:32.901Z,19.92
2018-07-02T06:43:04.143Z,19.69
2018-07-02T06:45:35.084Z,20.18
2018-07-02T06:48:06.418Z,20.39
2018-07-02T06:50:37.539Z,22.25
2018-07-02T06:53:08.785Z,21.01
2018-07-02T06:55:39.753Z,21.63
2018-07-02T06:58:10.816Z,20.51
2018-07-02T07:00:42.085Z,20.05
2018-07-02T07:03:12.960Z,20.98
2018-07-02T07:05:43.888Z,20.68
2018-07-02T07:08:15.219Z,19.14
2018-07-02T07:10:46.472Z,19.29
2018-07-02T07:13:17.899Z,19.87
2018-07-02T07:15:48.983Z,21.31
2018-07-02T07:18:20.180Z,23.18
2018-07-02T07:20:52.089Z,24.79
2018-07-02T07:23:23.167Z,22.20
2018-07-02T07:25:54.528Z,23.30
2018-07-02T07:28:25.646Z,25.60
2018-07-02T07:30:56.861Z,24.10
2018-07-02T07:33:28.336Z,26.18
2018-07-02T07:35:59.336Z,25.02
2018-07-02T07:38:30.719Z,23.30
2018-07-02T07:41:03.095Z,25.68
2018-07-02T07:43:34.065Z,25.67
2018-07-02T07:46:05.637Z,26.13
2018-07-02T07:48:37.448Z,26.49
2018-07-02T07:51:09.487Z,25.97
2018-07-02T07:53:40.606Z,26.26
2018-07-02T07:56:11.673Z,27.54
2018-07-02T07:58:42.648Z,26.71
2018-07-02T08:01:14.725Z,27.12
2018-07-02T08:03:46.084Z,26.47
2018-07-02T08:06:17.531Z,27.86
2018-07-02T08:08:48.984Z,28.68
2018-07-02T08:11:21.541Z,28.08
2018-07-02T08:13:53.129Z,26.83
2018-07-02T08:16:26.115Z,29.58
2018-07-02T08:18:57.604Z,31.93
2018-07-02T08:21:28.748Z,32.88
2018-07-02T08:24:00.216Z,34.63
2018-07-02T08:26:31.493Z,36.39
2018-07-02T08:29:02.789Z,37.04
2018-07-02T08:31:33.957Z,38.50
2018-07-02T08:34:05.046Z,38.50
2018-07-02T08:36:35.954Z,40.34
2018-07-02T08:39:11.303Z,42.29
2018-07-02T08:41:42.799Z,43.00
2018-07-02T08:44:13.867Z,42.59
2018-07-02T08:46:45.209Z,42.69
2018-07-02T08:49:16.399Z,43.17
2018-07-02T08:51:47.547Z,42.35
2018-07-02T08:54:18.802Z,41.74
2018-07-02T08:56:50.830Z,42.54
2018-07-02T08:59:22.091Z,42.94
2018-07-02T09:01:54.122Z,42.08
2018-07-02T09:04:25.275Z,40.61
2018-07-02T09:06:56.652Z,41.43
2018-07-02T09:09:27.823Z,42.07
2018-07-02T09:11:58.881Z,40.46
2018-07-02T09:14:29.934Z,41.49
2018-07-02T09:17:01.339Z,40.55
2018-07-02T09:19:32.940Z,42.25
2018-07-02T09:22:04.136Z,42.46
2018-07-02T09:24:36.311Z,43.55
2018-07-02T09:27:07.469Z,43.60
2018-07-02T09:29:38.666Z,43.36
2018-07-02T09:32:09.689Z,42.07
2018-07-02T09:34:41.494Z,43.00
2018-07-02T09:37:12.711Z,43.11
2018-07-02T09:39:43.848Z,42.54
2018-07-02T09:42:15.352Z,43.32
2018-07-02T09:44:46.753Z,42.80
2018-07-02T09:47:17.696Z,41.33
2018-07-02T09:49:48.910Z,42.75
2018-07-02T09:52:20.302Z,42.68
2018-07-02T09:54:51.444Z,44.01
2018-07-02T09:57:23.196Z,42.76
2018-07-02T09:59:54.450Z,42.66
2018-07-02T10:02:25.847Z,42.29
2018-07-02T10:04:57.128Z,43.43
2018-07-02T10:07:28.402Z,43.18
2018-07-02T10:10:00.566Z,42.94
2018-07-02T10:12:32.802Z,44.00
2018-07-02T10:15:04.176Z,44.67
2018-07-02T10:17:35.436Z,44.01
2018-07-02T10:20:07.369Z,43.75
2018-07-02T10:22:38.656Z,44.40
2018-07-02T10:25:09.937Z,44.93
2018-07-02T10:27:41.027Z,42.73
2018-07-02T10:30:12.182Z,43.41
2018-07-02T10:32:43.403Z,43.96
2018-07-02T10:35:14.364Z,44.75
2018-07-02T10:37:45.632Z,44.91
2018-07-02T10:40:16.766Z,44.49
2018-07-02T10:42:48.491Z,45.50
2018-07-02T10:45:19.584Z,45.43
2018-07-02T10:47:50.689Z,42.25
2018-07-02T10:50:21.848Z,44.21
2018-07-02T10:52:53.928Z,43.38
2018-07-02T10:55:25.225Z,43.28
2018-07-02T10:57:56.558Z,42.90
2018-07-02T11:00:27.885Z,43.22
2018-07-02T11:02:58.915Z,43.28
2018-07-02T11:05:30.099Z,43.54
2018-07-02T11:08:01.237Z,42.76
2018-07-02T11:10:33.138Z,41.17
2018-07-02T11:13:09.232Z,41.32
2018-07-02T11:15:41.798Z,43.43
2018-07-02T11:18:14.244Z,42.19
2018-07-02T11:20:45.714Z,43.37
2018-07-02T11:23:16.957Z,42.83
2018-07-02T11:25:47.997Z,44.22
2018-07-02T11:28:19.264Z,42.79
2018-07-02T11:30:50.562Z,44.38
2018-07-02T11:33:21.666Z,44.79
2018-07-02T11:35:52.761Z,43.72
2018-07-02T11:38:23.917Z,43.79
2018-07-02T11:40:54.937Z,43.98
2018-07-02T11:43:26.059Z,44.68
2018-07-02T11:45:57.160Z,44.19
2018-07-02T11:48:28.138Z,44.06
2018-07-02T11:51:02.426Z,43.72
2018-07-02T11:53:34.557Z,48.25
2018-07-02T11:56:05.749Z,45.95
2018-07-02T11:58:37.753Z,47.87
2018-07-02T12:01:08.914Z,47.46
2018-07-02T12:03:40.887Z,50.64
2018-07-02T12:06:11.851Z,51.44
2018-07-02T12:08:44.370Z,51.65
2018-07-02T12:11:15.597Z,52.90
2018-07-02T12:13:46.938Z,51.63
2018-07-02T12:16:17.966Z,50.61
2018-07-02T12:18:49.325Z,49.60
2018-07-02T12:21:20.498Z,49.55
2018-07-02T12:23:51.888Z,49.56
2018-07-02T12:26:23.115Z,50.07
2018-07-02T12:28:54.461Z,51.86
2018-07-02T12:31:25.475Z,53.32
2018-07-02T12:33:57.558Z,53.68
2018-07-02T12:36:30.060Z,52.67
2018-07-02T12:39:01.074Z,52.14
2018-07-02T12:41:31.995Z,51.86
2018-07-02T12:44:03.051Z,51.62
2018-07-02T12:46:37.067Z,52.92
2018-07-02T12:49:08.114Z,52.83
2018-07-02T12:51:39.170Z,52.04
2018-07-02T12:54:11.463Z,52.19
2018-07-02T12:56:42.906Z,52.26
2018-07-02T12:59:14.284Z,51.91
2018-07-02T13:01:45.485Z,52.22
2018-07-02T13:04:16.636Z,51.31
2018-07-02T13:06:47.913Z,50.98
2018-07-02T13:09:20.207Z,51.03
2018-07-02T13:11:51.504Z,49.83
2018-07-02T13:14:22.796Z,51.10
2018-07-02T13:16:53.825Z,50.94
2018-07-02T13:19:24.573Z,50.92
2018-07-02T13:21:55.762Z,51.98
2018-07-02T13:24:26.884Z,53.02
2018-07-02T13:26:58.034Z,53.95
2018-07-02T13:29:29.343Z,54.43
2018-07-02T13:32:00.342Z,54.66
2018-07-02T13:34:31.477Z,56.60
2018-07-02T13:37:02.613Z,57.47
2018-07-02T13:39:33.767Z,57.29
2018-07-02T13:42:04.927Z,57.31
2018-07-02T13:44:36.061Z,58.76
2018-07-02T13:47:07.370Z,57.12
2018-07-02T13:49:39.363Z,56.05
2018-07-02T13:52:10.364Z,57.60
2018-07-02T13:54:41.689Z,57.65
2018-07-02T13:57:12.855Z,57.31
2018-07-02T13:59:44.045Z,58.09
2018-07-02T14:02:15.131Z,57.69
2018-07-02T14:04:46.289Z,57.11
2018-07-02T14:07:17.234Z,57.07
2018-07-02T14:09:48.462Z,57.55
2018-07-02T14:12:19.774Z,58.33
2018-07-02T14:14:50.864Z,57.91
2018-07-02T14:17:22.020Z,58.26
2018-07-02T14:19:54.267Z,56.10
2018-07-02T14:22:25.440Z,57.04
2018-07-02T14:24:56.470Z,56.76
2018-07-02T14:27:28.041Z,57.34
2018-07-02T14:29:59.229Z,55.43
2018-07-02T14:32:30.599Z,56.31
2018-07-02T14:35:01.624Z,56.34
2018-07-02T14:37:32.867Z,55.98
2018-07-02T14:40:04.797Z,56.27
2018-07-02T14:42:36.220Z,56.10
2018-07-02T14:45:07.691Z,56.99
2018-07-02T14:47:38.729Z,58.14
2018-07-02T14:50:10.318Z,58.13
2018-07-02T14:52:41.764Z,57.54
2018-07-02T14:55:13.083Z,58.74
2018-07-02T14:57:44.273Z,59.24
2018-07-02T15:00:16.282Z,57.71
2018-07-02T15:02:47.318Z,57.72
2018-07-02T15:05:18.747Z,58.39
2018-07-02T15:07:50.066Z,57.97
2018-07-02T15:10:21.365Z,58.70
2018-07-02T15:12:52.615Z,57.57
2018-07-02T15:15:23.687Z,57.98
2018-07-02T15:17:54.902Z,58.14
2018-07-02T15:20:25.962Z,59.01
2018-07-02T15:22:56.885Z,58.95
2018-07-02T15:25:28.141Z,57.77
2018-07-02T15:28:00.569Z,58.53
2018-07-02T15:30:32.707Z,58.49
2018-07-02T15:33:04.117Z,59.37
2018-07-02T15:35:35.524Z,58.44
2018-07-02T15:38:07.069Z,58.09
2018-07-02T15:40:38.356Z,57.85
2018-07-02T15:43:09.833Z,59.13
2018-07-02T15:45:42.366Z,59.93
2018-07-02T15:48:13.589Z,60.89
2018-07-02T15:50:44.727Z,61.92
2018-07-02T15:53:17.296Z,62.79
2018-07-02T15:55:48.693Z,64.43
2018-07-02T15:58:19.976Z,63.96
2018-07-02T16:00:51.248Z,66.95
2018-07-02T16:03:22.899Z,66.58
2018-07-02T16:05:53.848Z,66.55
2018-07-02T16:08:24.989Z,68.90
2018-07-02T16:10:56.209Z,68.64
2018-07-02T16:13:27.763Z,69.88
2018-07-02T16:15:58.979Z,70.99
2018-07-02T16:18:30.282Z,71.06
2018-07-02T16:21:01.725Z,71.10
2018-07-02T16:23:32.942Z,73.73
2018-07-02T16:26:04.122Z,73.66
2018-07-02T16:28:36.412Z,74.52
2018-07-02T16:31:08.477Z,75.75
2018-07-02T16:33:39.581Z,76.44
2018-07-02T16:36:10.624Z,77.02
2018-07-02T16:38:41.605Z,76.46
2018-07-02T16:41:13.609Z,77.24
2018-07-02T16:43:45.061Z,76.68
2018-07-02T16:46:16.915Z,77.31
2018-07-02T16:48:47.984Z,78.61
2018-07-02T16:51:19.402Z,77.07
2018-07-02T16:53:50.791Z,77.23
2018-07-02T16:56:22.436Z,78.01
2018-07-02T16:58:53.621Z,78.69
2018-07-02T17:01:24.735Z,79.44
2018-07-02T17:03:57.082Z,79.70
2018-07-02T17:06:28.562Z,79.34
2018-07-02T17:08:59.677Z,79.52
2018-07-02T17:11:30.871Z,79.04
2018-07-02T17:14:02.186Z,81.05
2018-07-02T17:16:33.382Z,81.24
2018-07-02T17:19:04.570Z,81.22
2018-07-02T17:21:36.987Z,83.23
2018-07-02T17:24:08.223Z,84.40
2018-07-02T17:26:39.220Z,84.62
2018-07-02T17:29:10.190Z,84.39
2018-07-02T17:31:41.391Z,86.57
2018-07-02T17:34:13.824Z,87.21
2018-07-02T17:36:45.163Z,87.88
2018-07-02T17:39:17.669Z,87.71
2018-07-02T17:41:49.619Z,86.70
2018-07-02T17:44:20.778Z,88.07
2018-07-02T17:46:52.214Z,89.68
2018-07-02T17:49:23.603Z,89.72
2018-07-02T17:51:55.055Z,89.66
2018-07-02T17:54:26.336Z,90.93
2018-07-02T17:56:58.720Z,90.17
2018-07-02T17:59:30.037Z,91.47
2018-07-02T18:02:01.364Z,91.63
2018-07-02T18:04:32.700Z,91.84
2018-07-02T18:07:04.046Z,92.93
2018-07-02T18:09:35.477Z,94.70
2018-07-02T18:12:06.768Z,94.42
2018-07-02T18:14:38.163Z,94.40
2018-07-02T18:17:09.432Z,96.01
2018-07-02T18:19:40.467Z,95.74
2018-07-02T18:22:11.481Z,96.26
2018-07-02T18:24:42.942Z,93.92
2018-07-02T18:27:14.158Z,94.27
2018-07-02T18:29:45.760Z,94.53
2018-07-02T18:32:17.030Z,93.89
2018-07-02T18:34:48.485Z,94.64
2018-07-02T18:37:19.465Z,94.42
2018-07-02T18:39:50.586Z,94.52
2018-07-02T18:42:21.774Z,94.58
2018-07-02T18:44:53.326Z,94.84
2018-07-02T18:47:24.302Z,94.14
2018-07-02T18:49:55.348Z,94.92
2018-07-02T18:52:26.670Z,95.07
2018-07-02T18:54:57.824Z,94.58
2018-07-02T18:57:29.036Z,94.81
2018-07-02T19:00:00.455Z,95.53
2018-07-02T19:02:31.741Z,95.70
2018-07-02T19:05:02.845Z,94.84
2018-07-02T19:07:34.485Z,94.51
2018-07-02T19:10:06.422Z,94.78
2018-07-02T19:12:37.790Z,95.53
2018-07-02T19:15:09.753Z,94.69
2018-07-02T19:17:41.110Z,95.14
2018-07-02T19:20:12.472Z,95.03
2018-07-02T19:22:43.629Z,95.37
2018-07-02T19:25:15.236Z,95.14
2018-07-02T19:27:46.653Z,95.46
2018-07-02T19:30:18.001Z,95.82
2018-07-02T19:32:49.522Z,95.58
2018-07-02T19:35:20.740Z,96.01
2018-07-02T19:37:52.449Z,95.91
2018-07-02T19:40:23.734Z,96.05
2018-07-02T19:42:55.246Z,95.75
2018-07-02T19:45:26.383Z,96.29
2018-07-02T19:47:57.180Z,95.34
2018-07-02T19:50:27.941Z,95.57
2018-07-02T19:52:59.465Z,95.34
2018-07-02T19:55:31.448Z,95.47
2018-07-02T19:58:02.878Z,96.10
2018-07-02T20:00:34.518Z,97.03
2018-07-02T20:03:07.151Z,98.03
2018-07-02T20:05:39.414Z,98.22
2018-07-02T20:08:11.627Z,97.99
2018-07-02T20:10:43.961Z,98.81
2018-07-02T20:13:15.499Z,99.68
2018-07-02T20:15:47.602Z,99.72
2018-07-02T20:18:20.723Z,99.50
2018-07-02T20:20:52.060Z,99.67
2018-07-02T20:23:23.066Z,100.00
2018-07-02T20:25:54.179Z,100.00
2018-07-02T20:28:25.594Z,100.00
2018-07-02T20:30:56.715Z,100.00
2018-07-02T20:33:28.170Z,100.00
2018-07-02T20:36:00.283Z,100.00
2018-07-02T20:38:31.677Z,100.00
2018-07-02T20:41:02.505Z,100.00
2018-07-02T20:43:33.850Z,100.00
2018-07-02T20:46:05.248Z,100.00
2018-07-02T20:48:36.380Z,100.00
2018-07-02T20:51:07.495Z,100.00
2018-07-02T20:53:38.400Z,100.00
2018-07-02T20:56:09.729Z,100.00
2018-07-02T20:58:40.781Z,100.00
2018-07-02T21:01:11.858Z,100.00
2018-07-02T21:03:43.880Z,100.00
2018-07-02T21:06:15.548Z,100.00
2018-07-02T21:08:47.059Z,100.00
2018-07-02T21:11:18.256Z,99.08
2018-07-02T21:13:50.189Z,97.96
2018-07-02T21:16:21.443Z,97.50
2018-07-02T21:18:52.519Z,97.76
2018-07-02T21:21:23.614Z,95.98
2018-07-02T21:23:54.927Z,96.15
2018-07-02T21:26:26.058Z,96.01
2018-07-02T21:28:57.420Z,96.62
2018-07-02T21:31:28.573Z,95.42
2018-07-02T21:33:59.717Z,94.64
2018-07-02T21:36:30.657Z,94.14
2018-07-02T21:39:01.714Z,94.24
2018-07-02T21:41:32.973Z,93.91
2018-07-02T21:44:04.190Z,92.90
2018-07-02T21:46:35.442Z,93.37
2018-07-02T21:49:06.666Z,92.81
2018-07-02T21:51:37.844Z,93.29
2018-07-02T21:54:08.971Z,93.40
2018-07-02T21:56:40.027Z,93.52
2018-07-02T21:59:11.235Z,92.95
2018-07-02T22:01:42.655Z,92.68
2018-07-02T22:04:13.972Z,92.48
2018-07-02T22:06:45.109Z,91.99
2018-07-02T22:09:16.234Z,93.42
2018-07-02T22:11:47.310Z,93.88
2018-07-02T22:14:18.325Z,95.01
2018-07-02T22:16:49.204Z,95.31
2018-07-02T22:19:20.091Z,94.61
2018-07-02T22:21:51.163Z,94.99
2018-07-02T22:24:22.242Z,95.36
2018-07-02T22:26:53.588Z,94.77
2018-07-02T22:29:24.744Z,94.88
2018-07-02T22:31:55.778Z,95.91
2018-07-02T22:34:27.584Z,94.73
2018-07-02T22:36:58.844Z,93.59
2018-07-02T22:39:29.965Z,90.28
2018-07-02T22:42:01.167Z,89.92
2018-07-02T22:44:32.509Z,90.26
2018-07-02T22:47:03.567Z,90.64
2018-07-02T22:49:35.309Z,90.97
2018-07-02T22:52:07.549Z,90.51
2018-07-02T22:54:38.863Z,90.68
2018-07-02T22:57:09.968Z,89.62
2018-07-02T22:59:41.059Z,89.83
2018-07-02T23:02:12.417Z,90.63
2018-07-02T23:04:43.607Z,90.51
2018-07-02T23:07:14.690Z,90.37
2018-07-02T23:09:45.752Z,90.82
2018-07-02T23:12:17.650Z,91.27
2018-07-02T23:14:50.155Z,91.89
2018-07-02T23:17:21.454Z,92.61
2018-07-02T23:19:52.452Z,92.87
2018-07-02T23:22:23.589Z,93.85
2018-07-02T23:24:55.011Z,93.92
2018-07-02T23:27:26.158Z,93.96
2018-07-02T23:29:57.205Z,94.55
2018-07-02T23:32:28.454Z,95.13
2018-07-02T23:34:59.439Z,94.91
2018-07-02T23:37:30.424Z,95.05
2018-07-02T23:40:01.307Z,95.68
2018-07-02T23:42:33.692Z,95.44
2018-07-02T23:45:04.910Z,95.84
2018-07-02T23:47:35.926Z,96.00
2018-07-02T23:50:07.184Z,95.82
2018-07-02T23:52:40.329Z,96.38
2018-07-02T23:55:11.638Z,97.15
2018-07-02T23:57:42.919Z,97.31
